createdAt,value
2023-03-26T00:03:39.171Z,78.80
2023-03-26T00:07:44.825Z,78.70
2023-03-26T00:11:50.507Z,78.70
2023-03-26T00:15:57.163Z,79.40
2023-03-26T00:20:05.130Z,78.80
2023-03-26T00:24:17.441Z,79.00
2023-03-26T00:28:24.562Z,78.70
2023-03-26T00:32:30.728Z,78.50
2023-03-26T00:36:36.484Z,78.60
2023-03-26T00:40:44.063Z,78.60
2023-03-26T00:44:51.202Z,78.60
2023-03-26T00:49:00.062Z,78.90
2023-03-26T00:53:05.798Z,78.90
2023-03-26T00:57:16.382Z,78.90
2023-03-26T01:01:30.389Z,78.90
2023-03-26T01:06:08.992Z,78.90
2023-03-26T01:10:14.866Z,79.40
2023-03-26T01:14:25.299Z,79.20
2023-03-26T01:18:34.240Z,79.30
2023-03-26T01:22:49.920Z,79.20
2023-03-26T01:27:14.496Z,79.60
2023-03-26T01:31:37.149Z,79.30
2023-03-26T01:35:51.306Z,79.60
2023-03-26T01:40:07.155Z,79.20
2023-03-26T01:44:38.238Z,79.30
2023-03-26T01:48:46.827Z,79.30
2023-03-26T01:52:52.385Z,79.20
2023-03-26T01:57:07.694Z,78.90
2023-03-26T02:01:29.495Z,78.80
2023-03-26T02:05:44.218Z,79.10
2023-03-26T02:10:00.401Z,79.00
2023-03-26T02:14:08.184Z,78.90
2023-03-26T02:18:13.733Z,78.70
2023-03-26T02:22:19.216Z,78.70
2023-03-26T02:26:25.594Z,78.60
2023-03-26T02:30:33.679Z,78.40
2023-03-26T02:34:41.209Z,78.40
2023-03-26T02:38:46.706Z,78.50
2023-03-26T02:42:52.318Z,78.60
2023-03-26T02:46:57.807Z,78.20
2023-03-26T02:51:04.846Z,77.60
2023-03-26T02:55:10.474Z,77.40
2023-03-26T02:59:15.951Z,77.90
2023-03-26T03:03:24.397Z,78.40
2023-03-26T03:07:29.981Z,78.70
2023-03-26T03:11:36.610Z,78.40
2023-03-26T03:15:42.788Z,78.30
2023-03-26T03:19:48.304Z,77.80
2023-03-26T03:23:55.190Z,77.50
2023-03-26T03:28:00.987Z,77.80
2023-03-26T03:32:06.463Z,77.80
2023-03-26T03:36:20.483Z,77.20
2023-03-26T03:40:27.479Z,76.20
2023-03-26T03:44:32.925Z,76.20
2023-03-26T03:48:39.157Z,76.00
2023-03-26T03:52:44.753Z,76.10
2023-03-26T03:56:50.265Z,76.10
2023-03-26T04:01:03.047Z,76.00
2023-03-26T04:05:11.484Z,76.20
2023-03-26T04:09:16.998Z,75.90
2023-03-26T04:13:22.609Z,75.60
2023-03-26T04:17:30.436Z,75.10
2023-03-26T04:21:37.836Z,75.00
2023-03-26T04:25:53.524Z,74.50
2023-03-26T04:30:01.457Z,74.00
2023-03-26T04:34:24.076Z,73.90
2023-03-26T04:38:33.611Z,73.80
2023-03-26T04:42:46.242Z,73.50
2023-03-26T04:46:55.441Z,73.90
2023-03-26T04:51:01.367Z,73.70
2023-03-26T04:56:06.209Z,73.80
2023-03-26T05:00:16.486Z,73.80
2023-03-26T05:04:22.277Z,74.10
2023-03-26T05:08:28.928Z,74.30
2023-03-26T05:12:34.609Z,74.40
2023-03-26T05:16:41.427Z,74.70
2023-03-26T05:20:47.031Z,74.80
2023-03-26T05:24:52.864Z,74.80
2023-03-26T05:28:58.516Z,74.50
2023-03-26T05:33:04.380Z,74.60
2023-03-26T05:37:09.969Z,74.50
2023-03-26T05:41:17.249Z,74.70
2023-03-26T05:45:23.071Z,74.60
2023-03-26T05:49:28.598Z,74.90
2023-03-26T05:53:34.507Z,74.40
2023-03-26T05:57:40.669Z,74.10
2023-03-26T06:01:46.227Z,73.60
2023-03-26T06:05:51.925Z,73.60
2023-03-26T06:09:57.537Z,73.50
2023-03-26T06:14:03.156Z,73.00
2023-03-26T06:18:09.077Z,72.40
2023-03-26T06:22:14.577Z,71.20
2023-03-26T06:26:20.747Z,70.70
2023-03-26T06:30:26.400Z,70.90
2023-03-26T06:34:32.133Z,70.70
2023-03-26T06:38:37.726Z,71.10
2023-03-26T06:43:09.154Z,71.30
2023-03-26T06:47:08.831Z,70.50
2023-03-26T06:51:14.339Z,70.10
2023-03-26T06:55:19.818Z,69.60
2023-03-26T06:59:25.580Z,68.00
2023-03-26T07:03:31.358Z,67.40
2023-03-26T07:07:45.881Z,64.80
2023-03-26T07:11:52.183Z,64.80
2023-03-26T07:15:57.649Z,64.80
2023-03-26T07:20:04.888Z,64.50
2023-03-26T07:24:14.327Z,64.40
2023-03-26T07:28:41.224Z,63.20
2023-03-26T07:32:56.306Z,61.00
2023-03-26T07:37:12.993Z,62.20
2023-03-26T07:41:36.334Z,62.20
2023-03-26T07:45:45.644Z,62.70
2023-03-26T07:49:57.816Z,61.50
2023-03-26T07:54:04.269Z,61.40
2023-03-26T07:58:24.672Z,61.00
2023-03-26T08:02:44.174Z,59.80
2023-03-26T08:07:13.755Z,60.80
2023-03-26T08:11:45.367Z,59.90
2023-03-26T08:16:27.686Z,60.30
2023-03-26T08:20:45.709Z,58.90
2023-03-26T08:25:22.892Z,59.10
2023-03-26T08:30:05.852Z,59.30
2023-03-26T08:34:13.592Z,59.20
2023-03-26T08:38:20.705Z,59.20
2023-03-26T08:43:19.933Z,58.50
2023-03-26T08:47:40.919Z,57.90
2023-03-26T08:52:17.462Z,58.10
2023-03-26T08:57:02.683Z,56.40
2023-03-26T09:01:45.571Z,55.80
2023-03-26T09:06:31.130Z,56.70
2023-03-26T09:10:57.806Z,55.90
2023-03-26T09:15:37.965Z,56.30
2023-03-26T09:20:40.117Z,55.80
2023-03-26T09:25:54.294Z,55.60
2023-03-26T09:29:59.745Z,55.50
2023-03-26T09:34:34.640Z,56.70
2023-03-26T09:38:55.021Z,56.70
2023-03-26T09:43:38.750Z,55.40
2023-03-26T09:48:12.760Z,56.30
2023-03-26T09:52:39.804Z,55.60
2023-03-26T09:57:19.038Z,56.20
2023-03-26T10:01:49.674Z,54.10
2023-03-26T10:06:18.965Z,55.00
2023-03-26T10:10:46.500Z,53.50
2023-03-26T10:15:19.031Z,53.70
2023-03-26T10:19:55.215Z,53.00
2023-03-26T10:24:28.503Z,53.80
2023-03-26T10:29:09.490Z,51.00
2023-03-26T10:33:28.467Z,53.60
2023-03-26T10:38:13.501Z,53.60
2023-03-26T10:42:54.314Z,52.20
2023-03-26T10:48:00.438Z,51.20
2023-03-26T10:52:13.074Z,51.00
2023-03-26T10:56:49.285Z,52.30
2023-03-26T11:01:04.752Z,49.90
2023-03-26T11:06:06.877Z,50.70
2023-03-26T11:10:25.543Z,49.90
2023-03-26T11:14:47.738Z,50.80
2023-03-26T11:19:01.632Z,51.50
2023-03-26T11:23:32.987Z,49.70
2023-03-26T11:28:42.230Z,49.10
2023-03-26T11:33:13.901Z,50.10
2023-03-26T11:37:34.711Z,50.20
2023-03-26T11:41:40.380Z,48.70
2023-03-26T11:45:48.248Z,50.20
2023-03-26T11:49:58.496Z,50.00
2023-03-26T11:54:07.846Z,49.80
2023-03-26T11:58:52.071Z,48.80
2023-03-26T12:02:59.513Z,48.30
2023-03-26T12:07:21.756Z,48.00
2023-03-26T12:11:33.916Z,47.90
2023-03-26T12:15:43.864Z,48.40
2023-03-26T12:19:49.365Z,47.70
2023-03-26T12:24:00.164Z,48.00
2023-03-26T12:28:14.606Z,48.30
2023-03-26T12:32:20.132Z,48.80
2023-03-26T12:36:30.300Z,47.50
2023-03-26T12:40:36.789Z,45.90
2023-03-26T12:44:58.763Z,47.50
2023-03-26T12:49:07.300Z,46.30
2023-03-26T12:53:49.653Z,47.90
2023-03-26T12:58:28.560Z,46.40
2023-03-26T13:03:00.099Z,47.40
2023-03-26T13:07:25.393Z,45.70
2023-03-26T13:12:09.348Z,45.80
2023-03-26T13:16:38.879Z,46.90
2023-03-26T13:21:07.301Z,45.80
2023-03-26T13:25:27.757Z,44.70
2023-03-26T13:30:11.198Z,45.90
2023-03-26T13:34:56.296Z,44.90
2023-03-26T13:39:34.288Z,45.50
2023-03-26T13:44:35.019Z,45.60
2023-03-26T13:49:13.576Z,43.90
2023-03-26T13:53:25.828Z,43.90
2023-03-26T13:57:37.381Z,45.70
2023-03-26T14:02:08.647Z,44.00
2023-03-26T14:06:42.367Z,43.90
2023-03-26T14:11:18.743Z,42.60
2023-03-26T14:15:34.775Z,44.00
2023-03-26T14:20:02.010Z,43.40
2023-03-26T14:24:28.939Z,44.50
2023-03-26T14:29:07.662Z,44.10
2023-03-26T14:33:34.081Z,44.90
2023-03-26T14:38:19.416Z,44.30
2023-03-26T14:42:56.750Z,44.10
2023-03-26T14:47:08.614Z,42.60
2023-03-26T14:51:55.816Z,44.00
2023-03-26T14:56:47.212Z,43.40
2023-03-26T15:01:25.162Z,42.60
2023-03-26T15:06:21.167Z,41.50
2023-03-26T15:10:47.384Z,42.20
2023-03-26T15:15:11.407Z,40.90
2023-03-26T15:20:20.899Z,41.90
2023-03-26T15:25:19.714Z,41.90
2023-03-26T15:29:59.120Z,41.60
2023-03-26T15:34:51.793Z,42.80
2023-03-26T15:39:16.023Z,43.20
2023-03-26T15:43:22.214Z,45.50
2023-03-26T15:47:54.131Z,45.90
2023-03-26T15:52:26.099Z,45.40
2023-03-26T15:57:01.701Z,46.60
2023-03-26T16:01:19.297Z,47.10
2023-03-26T16:05:43.325Z,47.30
2023-03-26T16:10:17.050Z,46.60
2023-03-26T16:14:34.954Z,47.00
2023-03-26T16:19:13.703Z,47.00
2023-03-26T16:23:47.479Z,47.30
2023-03-26T16:28:12.382Z,48.00
2023-03-26T16:32:28.808Z,47.40
2023-03-26T16:36:43.058Z,47.40
2023-03-26T16:41:19.060Z,47.40
2023-03-26T16:45:29.818Z,46.90
2023-03-26T16:49:41.522Z,47.90
2023-03-26T16:54:04.348Z,47.60
2023-03-26T16:58:40.957Z,47.60
2023-03-26T17:03:26.846Z,47.30
2023-03-26T17:08:17.091Z,48.20
2023-03-26T17:12:34.752Z,48.40
2023-03-26T17:17:19.081Z,48.70
2023-03-26T17:21:55.886Z,49.40
2023-03-26T17:26:10.839Z,49.20
2023-03-26T17:30:57.585Z,49.30
2023-03-26T17:35:07.598Z,48.80
2023-03-26T17:39:40.354Z,49.00
2023-03-26T17:43:53.071Z,48.80
2023-03-26T17:48:19.880Z,49.40
2023-03-26T17:52:53.755Z,49.40
2023-03-26T17:57:12.727Z,49.50
2023-03-26T18:01:44.074Z,50.00
2023-03-26T18:05:55.976Z,50.20
2023-03-26T18:10:10.641Z,50.20
2023-03-26T18:14:34.468Z,50.30
2023-03-26T18:18:54.915Z,50.90
2023-03-26T18:23:10.779Z,50.80
2023-03-26T18:27:21.270Z,51.20
2023-03-26T18:31:27.307Z,51.00
2023-03-26T18:35:51.976Z,50.80
2023-03-26T18:40:00.761Z,50.60
2023-03-26T18:44:14.253Z,51.10
2023-03-26T18:48:24.592Z,51.10
2023-03-26T18:52:32.248Z,51.40
2023-03-26T18:56:43.400Z,51.50
2023-03-26T19:00:52.878Z,51.50
2023-03-26T19:05:03.562Z,51.60
2023-03-26T19:09:28.642Z,51.50
2023-03-26T19:13:43.022Z,51.60
2023-03-26T19:17:56.563Z,51.50
2023-03-26T19:22:04.841Z,51.80
2023-03-26T19:26:11.698Z,51.70
2023-03-26T19:30:40.668Z,51.90
2023-03-26T19:34:48.158Z,51.80
2023-03-26T19:39:04.896Z,51.90
2023-03-26T19:43:14.455Z,51.90
2023-03-26T19:47:35.556Z,51.80
2023-03-26T19:51:53.355Z,51.80
2023-03-26T19:56:13.445Z,51.70
2023-03-26T20:00:19.666Z,51.60
2023-03-26T20:04:25.399Z,51.70
2023-03-26T20:08:31.012Z,51.90
2023-03-26T20:12:36.698Z,52.50
2023-03-26T20:16:45.047Z,52.00
2023-03-26T20:20:54.739Z,52.10
2023-03-26T20:25:00.488Z,51.90
2023-03-26T20:29:06.194Z,52.20
2023-03-26T20:33:27.765Z,52.10
2023-03-26T20:37:33.258Z,52.10
2023-03-26T20:41:47.211Z,52.10
2023-03-26T20:45:53.681Z,52.30
2023-03-26T20:49:59.507Z,52.30
2023-03-26T20:54:21.530Z,52.50
2023-03-26T20:58:31.959Z,52.90
2023-03-26T21:02:38.026Z,53.00
2023-03-26T21:06:43.934Z,53.20
2023-03-26T21:10:49.757Z,53.50
2023-03-26T21:14:56.052Z,53.60
2023-03-26T21:19:03.441Z,53.70
2023-03-26T21:23:24.830Z,53.80
2023-03-26T21:27:39.907Z,54.00
2023-03-26T21:31:46.692Z,54.30
2023-03-26T21:35:52.892Z,54.50
2023-03-26T21:39:59.830Z,54.60
2023-03-26T21:44:05.397Z,54.80
2023-03-26T21:48:11.957Z,55.10
2023-03-26T21:52:17.900Z,55.30
2023-03-26T21:56:48.489Z,55.50
2023-03-26T22:01:25.666Z,56.10
2023-03-26T22:06:08.965Z,56.20
2023-03-26T22:10:14.627Z,56.50
2023-03-26T22:14:20.675Z,56.40
2023-03-26T22:18:29.959Z,56.70
2023-03-26T22:22:35.469Z,56.90
2023-03-26T22:26:41.377Z,57.10
2023-03-26T22:30:46.835Z,57.60
2023-03-26T22:34:53.095Z,57.90
2023-03-26T22:38:58.764Z,58.00
2023-03-26T22:43:04.421Z,58.10
2023-03-26T22:47:09.882Z,58.30
2023-03-26T22:51:16.150Z,58.30
2023-03-26T22:55:28.843Z,58.40
2023-03-26T22:59:35.622Z,58.50
2023-03-26T23:03:41.230Z,58.40
2023-03-26T23:07:46.693Z,58.20
2023-03-26T23:11:52.147Z,58.00
2023-03-26T23:15:57.680Z,57.90
2023-03-26T23:20:12.171Z,57.80
2023-03-26T23:24:17.789Z,57.60
2023-03-26T23:28:23.923Z,57.70
2023-03-26T23:32:29.411Z,57.80
2023-03-26T23:36:35.112Z,58.10
2023-03-26T23:40:44.194Z,57.80
2023-03-26T23:45:04.730Z,57.90
2023-03-26T23:49:10.389Z,58.10
2023-03-26T23:53:17.645Z,58.20
2023-03-26T23:57:23.071Z,58.20
